sensor_id;sensor_type;location;lat;lon;timestamp;pressure;altitude;pressure_sealevel;temperature;humidity
46778;BME280;32536;47.128;8.746;2023-04-27T00:00:46;91647.94;;;12.58;49.79
46778;BME280;32536;47.128;8.746;2023-04-27T00:03:13;91644.44;;;12.61;49.60
46778;BME280;32536;47.128;8.746;2023-04-27T00:05:40;91651.31;;;12.62;49.26
46778;BME280;32536;47.128;8.746;2023-04-27T00:08:07;91637.19;;;12.58;49.58
46778;BME280;32536;47.128;8.746;2023-04-27T00:10:34;91635.34;;;12.55;49.50
46778;BME280;32536;47.128;8.746;2023-04-27T00:13:01;91634.25;;;12.52;50.02
46778;BME280;32536;47.128;8.746;2023-04-27T00:15:28;91627.28;;;12.55;49.64
46778;BME280;32536;47.128;8.746;2023-04-27T00:17:55;91628.41;;;12.57;49.79
46778;BME280;32536;47.128;8.746;2023-04-27T00:20:22;91627.97;;;12.59;50.05
46778;BME280;32536;47.128;8.746;2023-04-27T00:22:49;91625.28;;;12.59;49.81
46778;BME280;32536;47.128;8.746;2023-04-27T00:25:16;91619.91;;;12.59;50.28
46778;BME280;32536;47.128;8.746;2023-04-27T00:27:43;91619.56;;;12.57;50.06
46778;BME280;32536;47.128;8.746;2023-04-27T00:30:09;91618.03;;;12.56;49.70
46778;BME280;32536;47.128;8.746;2023-04-27T00:32:36;91616.88;;;12.57;49.98
46778;BME280;32536;47.128;8.746;2023-04-27T00:35:03;91616.06;;;12.60;50.07
46778;BME280;32536;47.128;8.746;2023-04-27T00:37:30;91600.75;;;12.57;50.08
46778;BME280;32536;47.128;8.746;2023-04-27T00:39:57;91608.16;;;12.53;50.02
46778;BME280;32536;47.128;8.746;2023-04-27T00:42:24;91608.53;;;12.51;49.84
46778;BME280;32536;47.128;8.746;2023-04-27T00:44:51;91613.91;;;12.51;49.77
46778;BME280;32536;47.128;8.746;2023-04-27T00:47:17;91615.09;;;12.50;49.65
46778;BME280;32536;47.128;8.746;2023-04-27T00:49:44;91615.84;;;12.51;49.60
46778;BME280;32536;47.128;8.746;2023-04-27T00:52:11;91612.00;;;12.52;49.89
46778;BME280;32536;47.128;8.746;2023-04-27T00:54:38;91615.78;;;12.54;50.16
46778;BME280;32536;47.128;8.746;2023-04-27T00:57:05;91620.41;;;12.54;49.93
46778;BME280;32536;47.128;8.746;2023-04-27T00:59:31;91617.38;;;12.52;50.26
46778;BME280;32536;47.128;8.746;2023-04-27T01:01:58;91616.19;;;12.53;50.33
46778;BME280;32536;47.128;8.746;2023-04-27T01:04:27;91622.31;;;12.53;50.51
46778;BME280;32536;47.128;8.746;2023-04-27T01:06:54;91619.63;;;12.53;50.30
46778;BME280;32536;47.128;8.746;2023-04-27T01:09:21;91606.97;;;12.54;50.23
46778;BME280;32536;47.128;8.746;2023-04-27T01:11:48;91616.19;;;12.53;50.50
46778;BME280;32536;47.128;8.746;2023-04-27T01:14:15;91624.66;;;12.51;50.48
46778;BME280;32536;47.128;8.746;2023-04-27T01:16:41;91618.53;;;12.51;50.14
46778;BME280;32536;47.128;8.746;2023-04-27T01:19:09;91615.03;;;12.54;49.98
46778;BME280;32536;47.128;8.746;2023-04-27T01:21:35;91626.88;;;12.56;50.02
46778;BME280;32536;47.128;8.746;2023-04-27T01:24:05;91623.84;;;12.54;50.60
46778;BME280;32536;47.128;8.746;2023-04-27T01:26:32;91619.97;;;12.55;49.97
46778;BME280;32536;47.128;8.746;2023-04-27T01:28:59;91628.03;;;12.55;50.08
46778;BME280;32536;47.128;8.746;2023-04-27T01:31:26;91630.31;;;12.57;50.13
46778;BME280;32536;47.128;8.746;2023-04-27T01:33:53;91634.50;;;12.58;49.64
46778;BME280;32536;47.128;8.746;2023-04-27T01:36:20;91622.59;;;12.59;49.83
46778;BME280;32536;47.128;8.746;2023-04-27T01:38:47;91627.97;;;12.59;49.87
46778;BME280;32536;47.128;8.746;2023-04-27T01:41:13;91627.19;;;12.58;49.87
46778;BME280;32536;47.128;8.746;2023-04-27T01:43:40;91627.19;;;12.58;49.97
46778;BME280;32536;47.128;8.746;2023-04-27T01:46:12;91637.19;;;12.58;49.96
46778;BME280;32536;47.128;8.746;2023-04-27T01:48:40;91628.72;;;12.59;50.48
46778;BME280;32536;47.128;8.746;2023-04-27T01:51:07;91635.25;;;12.58;50.39
46778;BME280;32536;47.128;8.746;2023-04-27T01:53:34;91636.84;;;12.56;50.18
46778;BME280;32536;47.128;8.746;2023-04-27T01:56:00;91637.63;;;12.56;50.42
46778;BME280;32536;47.128;8.746;2023-04-27T01:58:28;91642.22;;;12.56;50.32
46778;BME280;32536;47.128;8.746;2023-04-27T02:00:54;91639.53;;;12.56;50.07
46778;BME280;32536;47.128;8.746;2023-04-27T02:03:21;91653.41;;;12.54;50.37
46778;BME280;32536;47.128;8.746;2023-04-27T02:05:48;91655.34;;;12.54;50.18
46778;BME280;32536;47.128;8.746;2023-04-27T02:08:14;91646.16;;;12.51;49.83
46778;BME280;32536;47.128;8.746;2023-04-27T02:10:41;91642.31;;;12.52;50.15
46778;BME280;32536;47.128;8.746;2023-04-27T02:13:08;91639.63;;;12.52;49.84
46778;BME280;32536;47.128;8.746;2023-04-27T02:15:35;91650.34;;;12.52;50.70
46778;BME280;32536;47.128;8.746;2023-04-27T02:18:02;91647.34;;;12.50;50.07
46778;BME280;32536;47.128;8.746;2023-04-27T02:20:30;91649.34;;;12.46;50.67
46778;BME280;32536;47.128;8.746;2023-04-27T02:22:57;91647.16;;;12.41;50.70
46778;BME280;32536;47.128;8.746;2023-04-27T02:25:24;91651.84;;;12.37;50.52
46778;BME280;32536;47.128;8.746;2023-04-27T02:27:51;91648.44;;;12.32;50.47
46778;BME280;32536;47.128;8.746;2023-04-27T02:30:19;91659.63;;;12.31;50.56
46778;BME280;32536;47.128;8.746;2023-04-27T02:32:46;91653.81;;;12.32;50.26
46778;BME280;32536;47.128;8.746;2023-04-27T02:35:13;91653.81;;;12.32;50.21
46778;BME280;32536;47.128;8.746;2023-04-27T02:37:39;91653.16;;;12.28;51.07
46778;BME280;32536;47.128;8.746;2023-04-27T02:40:07;91653.72;;;12.20;51.09
46778;BME280;32536;47.128;8.746;2023-04-27T02:42:34;91644.63;;;12.13;50.68
46778;BME280;32536;47.128;8.746;2023-04-27T02:45:07;91644.63;;;12.13;51.04
46778;BME280;32536;47.128;8.746;2023-04-27T02:47:34;91634.28;;;12.12;51.04
46778;BME280;32536;47.128;8.746;2023-04-27T02:50:01;91630.44;;;12.13;50.65
46778;BME280;32536;47.128;8.746;2023-04-27T02:52:28;91632.00;;;12.10;51.26
46778;BME280;32536;47.128;8.746;2023-04-27T02:54:55;91639.03;;;12.04;51.23
46778;BME280;32536;47.128;8.746;2023-04-27T02:57:22;91643.66;;;12.04;50.95
46778;BME280;32536;47.128;8.746;2023-04-27T02:59:48;91647.09;;;12.04;51.02
46778;BME280;32536;47.128;8.746;2023-04-27T03:02:15;91647.50;;;12.03;51.34
46778;BME280;32536;47.128;8.746;2023-04-27T03:04:42;91647.91;;;12.01;51.00
46778;BME280;32536;47.128;8.746;2023-04-27T03:07:09;91647.16;;;12.00;50.98
46778;BME280;32536;47.128;8.746;2023-04-27T03:09:37;91647.91;;;12.01;51.09
46778;BME280;32536;47.128;8.746;2023-04-27T03:12:04;91646.75;;;12.02;51.21
46778;BME280;32536;47.128;8.746;2023-04-27T03:14:30;91642.94;;;11.99;51.40
46778;BME280;32536;47.128;8.746;2023-04-27T03:16:57;91644.56;;;11.93;51.42
46778;BME280;32536;47.128;8.746;2023-04-27T03:19:24;91652.34;;;11.88;51.24
46778;BME280;32536;47.128;8.746;2023-04-27T03:21:51;91652.34;;;11.88;51.33
46778;BME280;32536;47.128;8.746;2023-04-27T03:24:18;91645.81;;;11.89;51.52
46778;BME280;32536;47.128;8.746;2023-04-27T03:26:44;91649.94;;;11.93;51.30
46778;BME280;32536;47.128;8.746;2023-04-27T03:29:11;91649.91;;;11.97;51.07
46778;BME280;32536;47.128;8.746;2023-04-27T03:31:38;91649.50;;;11.98;51.16
46778;BME280;32536;47.128;8.746;2023-04-27T03:34:05;91648.75;;;11.98;51.36
46778;BME280;32536;47.128;8.746;2023-04-27T03:36:31;91651.00;;;11.99;50.98
46778;BME280;32536;47.128;8.746;2023-04-27T03:38:58;91644.06;;;12.02;50.95
46778;BME280;32536;47.128;8.746;2023-04-27T03:41:25;91648.25;;;12.03;51.07
46778;BME280;32536;47.128;8.746;2023-04-27T03:43:51;91647.09;;;12.04;51.03
46778;BME280;32536;47.128;8.746;2023-04-27T03:46:18;91644.75;;;12.06;51.81
46778;BME280;32536;47.128;8.746;2023-04-27T03:48:45;91648.53;;;12.09;51.67
46778;BME280;32536;47.128;8.746;2023-04-27T03:51:11;91633.59;;;12.08;51.46
46778;BME280;32536;47.128;8.746;2023-04-27T03:53:39;91645.84;;;12.09;51.33
46778;BME280;32536;47.128;8.746;2023-04-27T03:56:06;91647.31;;;12.13;51.02
46778;BME280;32536;47.128;8.746;2023-04-27T03:58:33;91647.63;;;12.15;51.58
46778;BME280;32536;47.128;8.746;2023-04-27T04:00:59;91657.28;;;12.13;51.59
46778;BME280;32536;47.128;8.746;2023-04-27T04:03:26;91657.03;;;12.07;51.17
46778;BME280;32536;47.128;8.746;2023-04-27T04:05:53;91656.66;;;12.05;51.55
46778;BME280;32536;47.128;8.746;2023-04-27T04:08:19;91662.03;;;12.05;51.43
46778;BME280;32536;47.128;8.746;2023-04-27T04:10:46;91658.25;;;12.03;51.34
46778;BME280;32536;47.128;8.746;2023-04-27T04:13:13;91653.28;;;12.01;51.49
46778;BME280;32536;47.128;8.746;2023-04-27T04:15:39;91663.63;;;12.03;51.60
46778;BME280;32536;47.128;8.746;2023-04-27T04:18:06;91660.94;;;12.03;51.90
46778;BME280;32536;47.128;8.746;2023-04-27T04:20:33;91664.38;;;12.03;52.05
46778;BME280;32536;47.128;8.746;2023-04-27T04:23:00;91664.78;;;12.01;52.02
46778;BME280;32536;47.128;8.746;2023-04-27T04:25:27;91670.22;;;11.98;51.47
46778;BME280;32536;47.128;8.746;2023-04-27T04:27:54;91663.34;;;11.97;51.37
46778;BME280;32536;47.128;8.746;2023-04-27T04:30:20;91662.63;;;11.93;51.37
46778;BME280;32536;47.128;8.746;2023-04-27T04:32:48;91666.97;;;11.87;51.53
46778;BME280;32536;47.128;8.746;2023-04-27T04:35:14;91667.41;;;11.81;51.26
46778;BME280;32536;47.128;8.746;2023-04-27T04:37:44;91666.38;;;11.75;51.42
46778;BME280;32536;47.128;8.746;2023-04-27T04:40:11;91667.63;;;11.71;51.65
46778;BME280;32536;47.128;8.746;2023-04-27T04:42:38;91661.97;;;11.65;51.83
46778;BME280;32536;47.128;8.746;2023-04-27T04:45:05;91664.69;;;11.61;51.23
46778;BME280;32536;47.128;8.746;2023-04-27T04:47:32;91669.78;;;11.56;51.54
46778;BME280;32536;47.128;8.746;2023-04-27T04:49:59;91667.16;;;11.52;51.75
46778;BME280;32536;47.128;8.746;2023-04-27T04:52:26;91671.00;;;11.51;51.57
46778;BME280;32536;47.128;8.746;2023-04-27T04:54:53;91668.31;;;11.51;51.36
46778;BME280;32536;47.128;8.746;2023-04-27T04:57:20;91669.50;;;11.50;51.80
46778;BME280;32536;47.128;8.746;2023-04-27T04:59:47;91669.88;;;11.48;51.51
46778;BME280;32536;47.128;8.746;2023-04-27T05:02:14;91668.38;;;11.47;51.78
46778;BME280;32536;47.128;8.746;2023-04-27T05:04:41;91661.16;;;11.44;52.20
46778;BME280;32536;47.128;8.746;2023-04-27T05:07:07;91664.63;;;11.41;52.19
46778;BME280;32536;47.128;8.746;2023-04-27T05:09:35;91665.47;;;11.38;52.25
46778;BME280;32536;47.128;8.746;2023-04-27T05:12:02;91662.38;;;11.40;52.22
46778;BME280;32536;47.128;8.746;2023-04-27T05:14:29;91666.94;;;11.43;52.25
46778;BME280;32536;47.128;8.746;2023-04-27T05:16:56;91655.03;;;11.44;51.78
46778;BME280;32536;47.128;8.746;2023-04-27T05:19:22;91655.38;;;11.46;51.66
46778;BME280;32536;47.128;8.746;2023-04-27T05:21:50;91654.56;;;11.49;51.93
46778;BME280;32536;47.128;8.746;2023-04-27T05:24:16;91661.84;;;11.48;52.06
46778;BME280;32536;47.128;8.746;2023-04-27T05:26:43;91659.16;;;11.48;52.12
46778;BME280;32536;47.128;8.746;2023-04-27T05:29:10;91659.94;;;11.49;52.15
46778;BME280;32536;47.128;8.746;2023-04-27T05:31:36;91657.56;;;11.51;52.24
46778;BME280;32536;47.128;8.746;2023-04-27T05:34:03;91662.56;;;11.52;52.31
46778;BME280;32536;47.128;8.746;2023-04-27T05:36:30;91667.03;;;11.59;51.43
46778;BME280;32536;47.128;8.746;2023-04-27T05:38:56;91663.53;;;11.62;51.67
46778;BME280;32536;47.128;8.746;2023-04-27T05:41:23;91656.19;;;11.66;51.92
46778;BME280;32536;47.128;8.746;2023-04-27T05:43:50;91663.00;;;11.71;52.02
46778;BME280;32536;47.128;8.746;2023-04-27T05:46:16;91656.78;;;11.74;51.92
46778;BME280;32536;47.128;8.746;2023-04-27T05:48:43;91657.94;;;11.77;52.08
46778;BME280;32536;47.128;8.746;2023-04-27T05:51:10;91661.72;;;11.79;52.04
46778;BME280;32536;47.128;8.746;2023-04-27T05:53:37;91667.81;;;11.80;52.04
46778;BME280;32536;47.128;8.746;2023-04-27T05:56:04;91666.66;;;11.81;52.42
46778;BME280;32536;47.128;8.746;2023-04-27T05:58:32;91671.22;;;11.84;52.23
46778;BME280;32536;47.128;8.746;2023-04-27T06:01:02;91669.28;;;11.84;52.52
46778;BME280;32536;47.128;8.746;2023-04-27T06:03:29;91673.00;;;11.91;52.08
46778;BME280;32536;47.128;8.746;2023-04-27T06:05:59;91681.38;;;11.96;52.32
46778;BME280;32536;47.128;8.746;2023-04-27T06:08:27;91676.69;;;12.00;52.16
46778;BME280;32536;47.128;8.746;2023-04-27T06:10:55;91682.75;;;12.05;52.36
46778;BME280;32536;47.128;8.746;2023-04-27T06:13:22;91688.03;;;12.08;52.20
46778;BME280;32536;47.128;8.746;2023-04-27T06:15:48;91686.50;;;12.11;52.14
46778;BME280;32536;47.128;8.746;2023-04-27T06:18:15;91692.53;;;12.15;52.35
46778;BME280;32536;47.128;8.746;2023-04-27T06:20:42;91693.63;;;12.17;52.20
46778;BME280;32536;47.128;8.746;2023-04-27T06:23:09;91695.91;;;12.19;52.29
46778;BME280;32536;47.128;8.746;2023-04-27T06:25:35;91693.94;;;12.23;52.52
46778;BME280;32536;47.128;8.746;2023-04-27T06:28:04;91688.88;;;12.25;52.24
46778;BME280;32536;47.128;8.746;2023-04-27T06:30:31;91687.66;;;12.30;52.59
46778;BME280;32536;47.128;8.746;2023-04-27T06:32:58;91685.66;;;12.34;52.55
46778;BME280;32536;47.128;8.746;2023-04-27T06:35:24;91689.78;;;12.39;52.35
46778;BME280;32536;47.128;8.746;2023-04-27T06:37:51;91696.19;;;12.45;52.50
46778;BME280;32536;47.128;8.746;2023-04-27T06:40:18;91692.59;;;12.52;52.44
46778;BME280;32536;47.128;8.746;2023-04-27T06:42:45;91690.19;;;12.57;52.41
46778;BME280;32536;47.128;8.746;2023-04-27T06:45:12;91690.44;;;12.63;52.46
46778;BME280;32536;47.128;8.746;2023-04-27T06:47:38;91701.13;;;12.67;52.08
46778;BME280;32536;47.128;8.746;2023-04-27T06:50:06;91697.19;;;12.71;52.24
46778;BME280;32536;47.128;8.746;2023-04-27T06:52:33;91698.66;;;12.76;52.24
46778;BME280;32536;47.128;8.746;2023-04-27T06:54:59;91703.94;;;12.79;52.07
46778;BME280;32536;47.128;8.746;2023-04-27T06:57:26;91702.00;;;12.80;52.38
46778;BME280;32536;47.128;8.746;2023-04-27T06:59:53;91705.03;;;12.82;52.23
46778;BME280;32536;47.128;8.746;2023-04-27T07:02:19;91704.28;;;12.81;52.14
46778;BME280;32536;47.128;8.746;2023-04-27T07:04:46;91716.53;;;12.82;52.36
46778;BME280;32536;47.128;8.746;2023-04-27T07:07:13;91720.69;;;12.87;52.55
46778;BME280;32536;47.128;8.746;2023-04-27T07:09:39;91714.72;;;12.96;52.02
46778;BME280;32536;47.128;8.746;2023-04-27T07:12:06;91714.56;;;13.03;52.36
46778;BME280;32536;47.128;8.746;2023-04-27T07:18:02;91712.59;;;13.07;52.31
46778;BME280;32536;47.128;8.746;2023-04-27T07:20:29;91711.38;;;13.08;52.38
46778;BME280;32536;47.128;8.746;2023-04-27T07:22:56;91719.13;;;13.06;52.52
46778;BME280;32536;47.128;8.746;2023-04-27T07:25:23;91714.84;;;13.09;52.50
46778;BME280;32536;47.128;8.746;2023-04-27T07:27:49;91720.16;;;13.12;52.45
46778;BME280;32536;47.128;8.746;2023-04-27T07:30:17;91714.63;;;13.20;52.63
46778;BME280;32536;47.128;8.746;2023-04-27T07:32:43;91713.69;;;13.26;52.65
46778;BME280;32536;47.128;8.746;2023-04-27T07:35:11;91713.94;;;13.32;52.45
46778;BME280;32536;47.128;8.746;2023-04-27T07:37:38;91719.25;;;13.36;52.20
46778;BME280;32536;47.128;8.746;2023-04-27T07:40:05;91715.34;;;13.40;52.41
46778;BME280;32536;47.128;8.746;2023-04-27T07:42:41;91714.75;;;13.49;52.55
46778;BME280;32536;47.128;8.746;2023-04-27T07:45:11;91706.91;;;13.55;52.32
46778;BME280;32536;47.128;8.746;2023-04-27T07:47:38;91710.94;;;13.63;52.18
46778;BME280;32536;47.128;8.746;2023-04-27T07:50:06;91705.03;;;13.68;52.25
46778;BME280;32536;47.128;8.746;2023-04-27T07:52:33;91700.34;;;13.72;52.19
46778;BME280;32536;47.128;8.746;2023-04-27T07:55:00;91700.34;;;13.72;52.29
46778;BME280;32536;47.128;8.746;2023-04-27T07:57:26;91695.97;;;13.79;52.19
46778;BME280;32536;47.128;8.746;2023-04-27T07:59:53;91702.00;;;13.83;52.17
46778;BME280;32536;47.128;8.746;2023-04-27T08:02:20;91705.78;;;13.85;51.92
46778;BME280;32536;47.128;8.746;2023-04-27T08:04:47;91700.84;;;13.84;51.89
46778;BME280;32536;47.128;8.746;2023-04-27T08:07:16;91706.56;;;13.86;51.76
46778;BME280;32536;47.128;8.746;2023-04-27T08:09:43;91698.06;;;13.87;51.80
46778;BME280;32536;47.128;8.746;2023-04-27T08:12:10;91697.97;;;13.91;51.66
46778;BME280;32536;47.128;8.746;2023-04-27T08:14:36;91690.66;;;13.91;51.50
46778;BME280;32536;47.128;8.746;2023-04-27T08:17:03;91697.53;;;13.92;51.64
46778;BME280;32536;47.128;8.746;2023-04-27T08:19:30;91693.56;;;13.97;51.61
46778;BME280;32536;47.128;8.746;2023-04-27T08:21:56;91689.88;;;14.07;51.47
46778;BME280;32536;47.128;8.746;2023-04-27T08:24:23;91688.81;;;14.18;51.29
46778;BME280;32536;47.128;8.746;2023-04-27T08:26:50;91687.44;;;14.26;51.56
46778;BME280;32536;47.128;8.746;2023-04-27T08:29:17;91688.34;;;14.36;51.41
46778;BME280;32536;47.128;8.746;2023-04-27T08:31:44;91684.19;;;14.48;51.38
46778;BME280;32536;47.128;8.746;2023-04-27T08:34:10;91677.72;;;14.58;51.67
46778;BME280;32536;47.128;8.746;2023-04-27T08:36:37;91680.38;;;14.75;51.58
46778;BME280;32536;47.128;8.746;2023-04-27T08:39:04;91676.50;;;14.88;51.52
46778;BME280;32536;47.128;8.746;2023-04-27T08:41:32;91685.34;;;15.02;51.06
46778;BME280;32536;47.128;8.746;2023-04-27T08:43:59;91686.09;;;15.02;51.18
46778;BME280;32536;47.128;8.746;2023-04-27T08:46:25;91681.38;;;15.07;50.82
46778;BME280;32536;47.128;8.746;2023-04-27T08:48:53;91676.81;;;15.03;50.80
46778;BME280;32536;47.128;8.746;2023-04-27T08:51:21;91679.22;;;15.01;50.77
46778;BME280;32536;47.128;8.746;2023-04-27T08:53:55;91680.28;;;15.04;50.80
46778;BME280;32536;47.128;8.746;2023-04-27T08:56:23;91682.22;;;15.03;50.76
46778;BME280;32536;47.128;8.746;2023-04-27T08:58:51;91678.69;;;15.07;50.79
46778;BME280;32536;47.128;8.746;2023-04-27T09:01:19;91678.56;;;15.10;50.83
46778;BME280;32536;47.128;8.746;2023-04-27T09:03:46;91683.84;;;15.14;50.58
46778;BME280;32536;47.128;8.746;2023-04-27T09:06:14;91677.28;;;15.15;50.49
46778;BME280;32536;47.128;8.746;2023-04-27T09:11:14;91676.75;;;15.20;50.41
46778;BME280;32536;47.128;8.746;2023-04-27T09:13:52;91675.13;;;15.23;50.20
46778;BME280;32536;47.128;8.746;2023-04-27T09:16:23;91684.84;;;15.20;50.14
46778;BME280;32536;47.128;8.746;2023-04-27T09:18:51;91684.50;;;15.18;50.39
46778;BME280;32536;47.128;8.746;2023-04-27T09:21:26;91685.69;;;15.17;49.75
46778;BME280;32536;47.128;8.746;2023-04-27T09:23:54;91683.66;;;15.21;50.30
46778;BME280;32536;47.128;8.746;2023-04-27T09:26:25;91682.03;;;15.24;50.15
46778;BME280;32536;47.128;8.746;2023-04-27T09:28:54;91678.16;;;15.25;50.11
46778;BME280;32536;47.128;8.746;2023-04-27T09:31:34;91684.63;;;15.27;49.32
46778;BME280;32536;47.128;8.746;2023-04-27T09:34:03;91682.78;;;15.24;50.04
46778;BME280;32536;47.128;8.746;2023-04-27T09:36:30;91684.38;;;15.21;50.10
46778;BME280;32536;47.128;8.746;2023-04-27T09:38:57;91684.84;;;15.20;49.97
46778;BME280;32536;47.128;8.746;2023-04-27T09:41:31;91683.31;;;15.19;50.12
46778;BME280;32536;47.128;8.746;2023-04-27T09:43:58;91684.84;;;15.20;50.26
46778;BME280;32536;47.128;8.746;2023-04-27T09:46:28;91683.66;;;15.21;50.19
46778;BME280;32536;47.128;8.746;2023-04-27T09:48:55;91677.47;;;15.20;50.11
46778;BME280;32536;47.128;8.746;2023-04-27T09:51:22;91678.25;;;15.21;50.04
46778;BME280;32536;47.128;8.746;2023-04-27T09:53:51;91678.16;;;15.25;49.74
46778;BME280;32536;47.128;8.746;2023-04-27T10:02:15;91679.00;;;15.34;49.75
46778;BME280;32536;47.128;8.746;2023-04-27T10:07:46;91685.38;;;15.41;49.63
46778;BME280;32536;47.128;8.746;2023-04-27T10:10:17;91672.16;;;15.43;49.25
46778;BME280;32536;47.128;8.746;2023-04-27T10:12:55;91671.75;;;15.44;49.70
46778;BME280;32536;47.128;8.746;2023-04-27T10:15:26;91677.16;;;15.44;48.90
46778;BME280;32536;47.128;8.746;2023-04-27T10:17:54;91669.69;;;15.48;49.56
46778;BME280;32536;47.128;8.746;2023-04-27T10:20:29;91671.53;;;15.51;49.33
46778;BME280;32536;47.128;8.746;2023-04-27T10:22:59;91680.16;;;15.59;49.54
46778;BME280;32536;47.128;8.746;2023-04-27T10:25:38;91674.75;;;15.59;48.73
46778;BME280;32536;47.128;8.746;2023-04-27T10:28:05;91674.63;;;15.63;49.55
46778;BME280;32536;47.128;8.746;2023-04-27T10:30:38;91673.88;;;15.62;49.36
46778;BME280;32536;47.128;8.746;2023-04-27T10:33:18;91676.16;;;15.64;49.58
46778;BME280;32536;47.128;8.746;2023-04-27T10:35:56;91682.97;;;15.56;47.98
46778;BME280;32536;47.128;8.746;2023-04-27T10:38:29;91673.78;;;15.53;48.99
46778;BME280;32536;47.128;8.746;2023-04-27T10:40:59;91678.97;;;15.47;49.28
46778;BME280;32536;47.128;8.746;2023-04-27T10:43:29;91677.16;;;15.44;49.19
46778;BME280;32536;47.128;8.746;2023-04-27T10:46:12;91675.31;;;15.41;48.71
46778;BME280;32536;47.128;8.746;2023-04-27T10:48:41;91668.16;;;15.47;49.46
46778;BME280;32536;47.128;8.746;2023-04-27T10:51:08;91666.88;;;15.52;49.35
46778;BME280;32536;47.128;8.746;2023-04-27T10:53:36;91666.75;;;15.56;49.63
46778;BME280;32536;47.128;8.746;2023-04-27T10:56:03;91666.75;;;15.56;49.49
46778;BME280;32536;47.128;8.746;2023-04-27T10:58:32;91668.38;;;15.53;49.22
46778;BME280;32536;47.128;8.746;2023-04-27T11:00:59;91663.84;;;15.50;49.25
46778;BME280;32536;47.128;8.746;2023-04-27T11:03:26;91667.00;;;15.48;49.46
46778;BME280;32536;47.128;8.746;2023-04-27T11:06:00;91669.13;;;15.53;49.03
46778;BME280;32536;47.128;8.746;2023-04-27T11:08:29;91667.84;;;15.58;49.41
46778;BME280;32536;47.128;8.746;2023-04-27T11:10:57;91667.59;;;15.65;49.19
46778;BME280;32536;47.128;8.746;2023-04-27T11:13:24;91666.31;;;15.70;49.20
46778;BME280;32536;47.128;8.746;2023-04-27T11:15:57;91670.72;;;15.77;49.17
46778;BME280;32536;47.128;8.746;2023-04-27T11:18:26;91671.56;;;15.87;49.21
46778;BME280;32536;47.128;8.746;2023-04-27T11:21:10;91672.63;;;15.89;48.71
46778;BME280;32536;47.128;8.746;2023-04-27T11:23:38;91678.25;;;15.95;49.01
46778;BME280;32536;47.128;8.746;2023-04-27T11:26:16;91671.66;;;15.96;48.57
46778;BME280;32536;47.128;8.746;2023-04-27T11:28:59;91672.63;;;16.02;46.65
46778;BME280;32536;47.128;8.746;2023-04-27T11:31:43;91666.22;;;16.09;48.47
46778;BME280;32536;47.128;8.746;2023-04-27T11:34:20;91666.84;;;16.13;48.59
46778;BME280;32536;47.128;8.746;2023-04-27T11:36:58;91663.91;;;16.20;48.95
46778;BME280;32536;47.128;8.746;2023-04-27T11:39:33;91663.91;;;16.20;48.54
46778;BME280;32536;47.128;8.746;2023-04-27T11:42:26;91670.97;;;16.05;48.34
46778;BME280;32536;47.128;8.746;2023-04-27T11:44:55;91670.53;;;16.06;48.72
46778;BME280;32536;47.128;8.746;2023-04-27T11:47:27;91666.09;;;16.12;48.95
46778;BME280;32536;47.128;8.746;2023-04-27T11:49:56;91660.88;;;16.18;49.02
46778;BME280;32536;47.128;8.746;2023-04-27T11:52:28;91669.31;;;16.20;48.83
46778;BME280;32536;47.128;8.746;2023-04-27T11:54:56;91675.03;;;16.22;48.61
46778;BME280;32536;47.128;8.746;2023-04-27T11:57:26;91661.38;;;16.26;48.69
46778;BME280;32536;47.128;8.746;2023-04-27T11:59:58;91659.00;;;16.28;48.34
46778;BME280;32536;47.128;8.746;2023-04-27T12:02:29;91665.06;;;16.32;48.43
46778;BME280;32536;47.128;8.746;2023-04-27T12:04:57;91660.25;;;16.36;48.35
46778;BME280;32536;47.128;8.746;2023-04-27T12:07:24;91656.25;;;16.41;48.78
46778;BME280;32536;47.128;8.746;2023-04-27T12:09:51;91658.19;;;16.40;48.45
46778;BME280;32536;47.128;8.746;2023-04-27T12:12:20;91663.16;;;16.42;48.82
46778;BME280;32536;47.128;8.746;2023-04-27T12:14:48;91669.94;;;16.46;48.30
46778;BME280;32536;47.128;8.746;2023-04-27T12:17:15;91662.91;;;16.49;48.17
46778;BME280;32536;47.128;8.746;2023-04-27T12:19:42;91665.41;;;16.43;48.28
46778;BME280;32536;47.128;8.746;2023-04-27T12:22:09;91663.47;;;16.44;48.45
46778;BME280;32536;47.128;8.746;2023-04-27T12:24:36;91662.59;;;16.47;48.50
46778;BME280;32536;47.128;8.746;2023-04-27T12:27:03;91666.22;;;16.53;48.28
46778;BME280;32536;47.128;8.746;2023-04-27T12:29:30;91656.69;;;16.61;48.61
46778;BME280;32536;47.128;8.746;2023-04-27T12:32:00;91660.00;;;16.65;47.92
46778;BME280;32536;47.128;8.746;2023-04-27T12:34:26;91651.75;;;16.69;48.60
46778;BME280;32536;47.128;8.746;2023-04-27T12:36:53;91651.16;;;16.74;48.42
46778;BME280;32536;47.128;8.746;2023-04-27T12:39:22;91650.09;;;16.72;48.28
46778;BME280;32536;47.128;8.746;2023-04-27T12:41:52;91656.28;;;16.72;48.58
46778;BME280;32536;47.128;8.746;2023-04-27T12:44:20;91645.63;;;16.78;48.39
46778;BME280;32536;47.128;8.746;2023-04-27T12:46:47;91647.75;;;16.83;47.91
46778;BME280;32536;47.128;8.746;2023-04-27T12:49:14;91648.00;;;16.76;48.34
46778;BME280;32536;47.128;8.746;2023-04-27T12:51:42;91649.09;;;16.78;48.55
46778;BME280;32536;47.128;8.746;2023-04-27T12:54:10;91649.72;;;16.83;48.15
46778;BME280;32536;47.128;8.746;2023-04-27T12:56:37;91636.38;;;16.88;48.53
46778;BME280;32536;47.128;8.746;2023-04-27T12:59:04;91643.16;;;16.93;48.53
46778;BME280;32536;47.128;8.746;2023-04-27T13:01:30;91651.34;;;17.02;48.54
46778;BME280;32536;47.128;8.746;2023-04-27T13:03:59;91638.00;;;17.08;48.54
46778;BME280;32536;47.128;8.746;2023-04-27T13:06:27;91637.41;;;17.13;48.19
46778;BME280;32536;47.128;8.746;2023-04-27T13:08:54;91639.19;;;17.16;48.24
46778;BME280;32536;47.128;8.746;2023-04-27T13:11:22;91636.78;;;17.09;47.90
46778;BME280;32536;47.128;8.746;2023-04-27T13:13:49;91639.44;;;17.00;48.21
46778;BME280;32536;47.128;8.746;2023-04-27T13:16:16;91639.44;;;17.00;48.10
46778;BME280;32536;47.128;8.746;2023-04-27T13:18:46;91641.25;;;17.03;48.04